sensor_id;sensor_type;location;lat;lon;timestamp;pressure;altitude;pressure_sealevel;temperature;humidity
7524;BME280;3803;51.666;7.630;2023-05-02T00:00:03;101174.91;;;13.77;62.35
7524;BME280;3803;51.666;7.630;2023-05-02T00:00:25;101180.25;;;13.80;62.54
7524;BME280;3803;51.666;7.630;2023-05-02T00:00:46;101176.69;;;13.78;62.54
7524;BME280;3803;51.666;7.630;2023-05-02T00:01:06;101175.75;;;13.75;62.37
7524;BME280;3803;51.666;7.630;2023-05-02T00:01:27;101177.53;;;13.76;62.33
7524;BME280;3803;51.666;7.630;2023-05-02T00:01:48;101167.09;;;13.79;62.21
7524;BME280;3803;51.666;7.630;2023-05-02T00:02:08;101176.69;;;13.77;62.57
7524;BME280;3803;51.666;7.630;2023-05-02T00:02:29;101174.97;;;13.79;62.34
7524;BME280;3803;51.666;7.630;2023-05-02T00:02:50;101180.22;;;13.79;62.14
7524;BME280;3803;51.666;7.630;2023-05-02T00:03:11;101186.38;;;13.81;62.12
7524;BME280;3803;51.666;7.630;2023-05-02T00:03:32;101169.53;;;13.69;62.18
7524;BME280;3803;51.666;7.630;2023-05-02T00:03:52;101172.16;;;13.69;62.22
7524;BME280;3803;51.666;7.630;2023-05-02T00:04:13;101168.66;;;13.70;62.21
7524;BME280;3803;51.666;7.630;2023-05-02T00:04:34;101173.09;;;13.73;62.24
7524;BME280;3803;51.666;7.630;2023-05-02T00:04:55;101176.63;;;13.75;62.06
7524;BME280;3803;51.666;7.630;2023-05-02T00:05:15;101177.41;;;13.69;62.42
7524;BME280;3803;51.666;7.630;2023-05-02T00:05:36;101160.66;;;13.64;62.45
7524;BME280;3803;51.666;7.630;2023-05-02T00:05:58;101183.66;;;13.76;62.12
7524;BME280;3803;51.666;7.630;2023-05-02T00:06:19;101175.69;;;13.71;62.18
7524;BME280;3803;51.666;7.630;2023-05-02T00:06:39;101170.28;;;13.65;62.53
7524;BME280;3803;51.666;7.630;2023-05-02T00:07:01;101180.06;;;13.73;62.49
7524;BME280;3803;51.666;7.630;2023-05-02T00:07:22;101186.13;;;13.70;62.39
7524;BME280;3803;51.666;7.630;2023-05-02T00:07:43;101179.94;;;13.66;62.38
7524;BME280;3803;51.666;7.630;2023-05-02T00:08:03;101173.81;;;13.66;62.50
7524;BME280;3803;51.666;7.630;2023-05-02T00:08:24;101173.00;;;13.68;62.60
7524;BME280;3803;51.666;7.630;2023-05-02T00:08:45;101174.88;;;13.74;62.24
7524;BME280;3803;51.666;7.630;2023-05-02T00:09:05;101177.41;;;13.69;62.67
7524;BME280;3803;51.666;7.630;2023-05-02T00:09:26;101175.53;;;13.64;62.65
7524;BME280;3803;51.666;7.630;2023-05-02T00:09:46;101172.00;;;13.63;62.66
7524;BME280;3803;51.666;7.630;2023-05-02T00:10:07;101193.28;;;13.76;62.47
7524;BME280;3803;51.666;7.630;2023-05-02T00:10:28;101177.41;;;13.69;62.30
7524;BME280;3803;51.666;7.630;2023-05-02T00:10:49;101185.34;;;13.74;62.48
7524;BME280;3803;51.666;7.630;2023-05-02T00:11:09;101184.47;;;13.74;62.42
7524;BME280;3803;51.666;7.630;2023-05-02T00:11:30;101185.31;;;13.73;62.54
7524;BME280;3803;51.666;7.630;2023-05-02T00:11:50;101177.44;;;13.73;62.49
7524;BME280;3803;51.666;7.630;2023-05-02T00:12:11;101178.31;;;13.71;62.28
7524;BME280;3803;51.666;7.630;2023-05-02T00:12:31;101180.94;;;13.71;62.50
7524;BME280;3803;51.666;7.630;2023-05-02T00:12:53;101182.72;;;13.74;62.46
7524;BME280;3803;51.666;7.630;2023-05-02T00:13:13;101181.06;;;13.78;62.46
7524;BME280;3803;51.666;7.630;2023-05-02T00:13:34;101183.66;;;13.76;62.39
7524;BME280;3803;51.666;7.630;2023-05-02T00:13:55;101169.56;;;13.73;62.15
7524;BME280;3803;51.666;7.630;2023-05-02T00:14:15;101176.56;;;13.72;62.10
7524;BME280;3803;51.666;7.630;2023-05-02T00:14:36;101179.16;;;13.70;62.27
7524;BME280;3803;51.666;7.630;2023-05-02T00:14:56;101180.97;;;13.73;62.28
7524;BME280;3803;51.666;7.630;2023-05-02T00:15:17;101186.22;;;13.73;62.14
7524;BME280;3803;51.666;7.630;2023-05-02T00:15:38;101178.25;;;13.70;62.25
7524;BME280;3803;51.666;7.630;2023-05-02T00:15:59;101176.53;;;13.70;62.08
7524;BME280;3803;51.666;7.630;2023-05-02T00:16:19;101186.16;;;13.71;62.24
7524;BME280;3803;51.666;7.630;2023-05-02T00:16:40;101189.69;;;13.74;62.30
7524;BME280;3803;51.666;7.630;2023-05-02T00:17:01;101186.13;;;13.68;62.31
7524;BME280;3803;51.666;7.630;2023-05-02T00:17:21;101183.41;;;13.64;62.45
7524;BME280;3803;51.666;7.630;2023-05-02T00:17:42;101188.66;;;13.65;62.30
7524;BME280;3803;51.666;7.630;2023-05-02T00:18:03;101192.31;;;13.74;62.45
7524;BME280;3803;51.666;7.630;2023-05-02T00:18:23;101185.16;;;13.65;62.31
7524;BME280;3803;51.666;7.630;2023-05-02T00:18:44;101181.63;;;13.63;62.49
7524;BME280;3803;51.666;7.630;2023-05-02T00:19:04;101187.78;;;13.66;62.43
7524;BME280;3803;51.666;7.630;2023-05-02T00:19:25;101192.19;;;13.66;62.33
7524;BME280;3803;51.666;7.630;2023-05-02T00:19:46;101191.16;;;13.59;62.29
7524;BME280;3803;51.666;7.630;2023-05-02T00:20:08;101191.28;;;13.65;62.69
7524;BME280;3803;51.666;7.630;2023-05-02T00:20:29;101184.22;;;13.61;62.48
7524;BME280;3803;51.666;7.630;2023-05-02T00:20:49;101184.16;;;13.60;62.67
7524;BME280;3803;51.666;7.630;2023-05-02T00:21:11;101185.84;;;13.56;62.66
7524;BME280;3803;51.666;7.630;2023-05-02T00:21:32;101190.22;;;13.57;62.78
7524;BME280;3803;51.666;7.630;2023-05-02T00:21:53;101191.94;;;13.55;62.92
7524;BME280;3803;51.666;7.630;2023-05-02T00:22:13;101196.28;;;13.54;62.89
7524;BME280;3803;51.666;7.630;2023-05-02T00:22:34;101187.41;;;13.48;62.83
7524;BME280;3803;51.666;7.630;2023-05-02T00:22:55;101189.25;;;13.52;62.87
7524;BME280;3803;51.666;7.630;2023-05-02T00:23:16;101197.19;;;13.55;63.15
7524;BME280;3803;51.666;7.630;2023-05-02T00:23:37;101198.03;;;13.54;63.22
7524;BME280;3803;51.666;7.630;2023-05-02T00:23:57;101190.06;;;13.49;63.03
7524;BME280;3803;51.666;7.630;2023-05-02T00:24:18;101180.38;;;13.47;63.12
7524;BME280;3803;51.666;7.630;2023-05-02T00:24:39;101192.78;;;13.54;63.01
7524;BME280;3803;51.666;7.630;2023-05-02T00:25:00;101189.16;;;13.49;62.98
7524;BME280;3803;51.666;7.630;2023-05-02T00:25:21;101201.53;;;13.54;63.34
7524;BME280;3803;51.666;7.630;2023-05-02T00:25:44;101197.13;;;13.52;62.95
7524;BME280;3803;51.666;7.630;2023-05-02T00:26:08;101188.28;;;13.48;63.20
7524;BME280;3803;51.666;7.630;2023-05-02T00:26:29;101185.69;;;13.48;63.10
7524;BME280;3803;51.666;7.630;2023-05-02T00:26:50;101197.97;;;13.51;63.22
7524;BME280;3803;51.666;7.630;2023-05-02T00:27:11;101192.72;;;13.51;63.12
7524;BME280;3803;51.666;7.630;2023-05-02T00:27:33;101191.72;;;13.46;62.89
7524;BME280;3803;51.666;7.630;2023-05-02T00:27:54;101190.81;;;13.45;62.99
7524;BME280;3803;51.666;7.630;2023-05-02T00:28:15;101190.81;;;13.43;63.16
7524;BME280;3803;51.666;7.630;2023-05-02T00:28:36;101191.63;;;13.41;63.26
7524;BME280;3803;51.666;7.630;2023-05-02T00:28:56;101197.03;;;13.47;63.09
7524;BME280;3803;51.666;7.630;2023-05-02T00:29:17;101184.72;;;13.45;63.07
7524;BME280;3803;51.666;7.630;2023-05-02T00:29:38;101191.78;;;13.47;62.97
7524;BME280;3803;51.666;7.630;2023-05-02T00:29:59;101203.22;;;13.51;63.15
7524;BME280;3803;51.666;7.630;2023-05-02T00:30:20;101201.41;;;13.50;63.27
7524;BME280;3803;51.666;7.630;2023-05-02T00:30:45;101205.75;;;13.48;63.17
7524;BME280;3803;51.666;7.630;2023-05-02T00:31:06;101191.63;;;13.42;63.02
7524;BME280;3803;51.666;7.630;2023-05-02T00:31:27;101197.75;;;13.41;62.99
7524;BME280;3803;51.666;7.630;2023-05-02T00:31:47;101188.91;;;13.38;63.11
7524;BME280;3803;51.666;7.630;2023-05-02T00:32:08;101192.59;;;13.45;62.97
7524;BME280;3803;51.666;7.630;2023-05-02T00:32:28;101195.22;;;13.45;63.26
7524;BME280;3803;51.666;7.630;2023-05-02T00:32:49;101195.00;;;13.37;63.22
7524;BME280;3803;51.666;7.630;2023-05-02T00:33:11;101201.31;;;13.43;63.17
7524;BME280;3803;51.666;7.630;2023-05-02T00:33:32;101197.81;;;13.45;63.10
7524;BME280;3803;51.666;7.630;2023-05-02T00:33:53;101218.09;;;13.52;63.16
7524;BME280;3803;51.666;7.630;2023-05-02T00:34:13;101198.69;;;13.45;63.08
7524;BME280;3803;51.666;7.630;2023-05-02T00:34:34;101204.03;;;13.48;62.94
7524;BME280;3803;51.666;7.630;2023-05-02T00:34:54;101205.75;;;13.48;62.76
7524;BME280;3803;51.666;7.630;2023-05-02T00:35:15;101197.81;;;13.45;62.96
7524;BME280;3803;51.666;7.630;2023-05-02T00:35:36;101195.22;;;13.45;62.99
7524;BME280;3803;51.666;7.630;2023-05-02T00:35:56;101196.06;;;13.43;63.13
7524;BME280;3803;51.666;7.630;2023-05-02T00:36:18;101212.00;;;13.53;62.79
7524;BME280;3803;51.666;7.630;2023-05-02T00:36:39;101205.69;;;13.45;62.76
7524;BME280;3803;51.666;7.630;2023-05-02T00:36:59;101203.06;;;13.45;63.33
7524;BME280;3803;51.666;7.630;2023-05-02T00:37:20;101211.84;;;13.47;62.99
7524;BME280;3803;51.666;7.630;2023-05-02T00:37:40;101214.44;;;13.45;63.25
7524;BME280;3803;51.666;7.630;2023-05-02T00:38:01;101206.53;;;13.43;63.22
7524;BME280;3803;51.666;7.630;2023-05-02T00:38:22;101208.22;;;13.41;63.25
7524;BME280;3803;51.666;7.630;2023-05-02T00:38:43;101201.22;;;13.40;63.06
7524;BME280;3803;51.666;7.630;2023-05-02T00:39:03;101195.81;;;13.34;63.18
7524;BME280;3803;51.666;7.630;2023-05-02T00:39:24;101205.47;;;13.35;63.50
7524;BME280;3803;51.666;7.630;2023-05-02T00:39:45;101209.06;;;13.39;63.17
7524;BME280;3803;51.666;7.630;2023-05-02T00:40:06;101208.94;;;13.34;63.59
7524;BME280;3803;51.666;7.630;2023-05-02T00:40:27;101218.66;;;13.38;63.69
7524;BME280;3803;51.666;7.630;2023-05-02T00:40:49;101208.00;;;13.32;63.46
7524;BME280;3803;51.666;7.630;2023-05-02T00:41:13;101206.09;;;13.25;63.53
7524;BME280;3803;51.666;7.630;2023-05-02T00:41:34;101213.09;;;13.26;63.67
7524;BME280;3803;51.666;7.630;2023-05-02T00:41:58;101205.34;;;13.29;63.79
7524;BME280;3803;51.666;7.630;2023-05-02T00:42:18;101209.66;;;13.27;63.51
7524;BME280;3803;51.666;7.630;2023-05-02T00:42:39;101204.25;;;13.21;63.63
7524;BME280;3803;51.666;7.630;2023-05-02T00:43:00;101206.03;;;13.22;63.75
7524;BME280;3803;51.666;7.630;2023-05-02T00:43:21;101212.19;;;13.24;63.56
7524;BME280;3803;51.666;7.630;2023-05-02T00:43:41;101221.81;;;13.25;63.58
7524;BME280;3803;51.666;7.630;2023-05-02T00:44:02;101209.53;;;13.22;63.82
7524;BME280;3803;51.666;7.630;2023-05-02T00:44:22;101205.94;;;13.17;63.43
7524;BME280;3803;51.666;7.630;2023-05-02T00:44:43;101202.34;;;13.13;63.69
7524;BME280;3803;51.666;7.630;2023-05-02T00:45:04;101204.03;;;13.11;63.62
7524;BME280;3803;51.666;7.630;2023-05-02T00:45:25;101205.94;;;13.19;63.90
7524;BME280;3803;51.666;7.630;2023-05-02T00:45:47;101205.81;;;13.12;63.96
7524;BME280;3803;51.666;7.630;2023-05-02T00:46:08;101211.13;;;13.15;63.87
7524;BME280;3803;51.666;7.630;2023-05-02T00:46:31;101218.13;;;13.16;64.01
7524;BME280;3803;51.666;7.630;2023-05-02T00:46:53;101213.69;;;13.14;63.50
7524;BME280;3803;51.666;7.630;2023-05-02T00:47:14;101214.66;;;13.18;64.00
7524;BME280;3803;51.666;7.630;2023-05-02T00:47:35;101211.91;;;13.11;63.84
7524;BME280;3803;51.666;7.630;2023-05-02T00:47:55;101211.16;;;13.17;63.78
7524;BME280;3803;51.666;7.630;2023-05-02T00:48:16;101213.69;;;13.14;63.61
7524;BME280;3803;51.666;7.630;2023-05-02T00:48:39;101211.97;;;13.14;63.55
7524;BME280;3803;51.666;7.630;2023-05-02T00:49:00;101217.91;;;13.07;63.74
7524;BME280;3803;51.666;7.630;2023-05-02T00:49:21;101211.88;;;13.10;63.70
7524;BME280;3803;51.666;7.630;2023-05-02T00:49:42;101206.53;;;13.07;63.74
7524;BME280;3803;51.666;7.630;2023-05-02T00:50:03;101215.41;;;13.12;63.88
7524;BME280;3803;51.666;7.630;2023-05-02T00:50:26;101217.97;;;13.10;63.70
7524;BME280;3803;51.666;7.630;2023-05-02T00:50:47;101213.69;;;13.12;63.70
7524;BME280;3803;51.666;7.630;2023-05-02T00:51:07;101207.38;;;13.06;63.76
7524;BME280;3803;51.666;7.630;2023-05-02T00:51:34;101207.50;;;13.10;64.04
7524;BME280;3803;51.666;7.630;2023-05-02T00:51:54;101210.91;;;13.06;63.90
7524;BME280;3803;51.666;7.630;2023-05-02T00:52:15;101211.81;;;13.08;63.83
7524;BME280;3803;51.666;7.630;2023-05-02T00:52:36;101219.78;;;13.11;63.86
7524;BME280;3803;51.666;7.630;2023-05-02T00:52:59;101216.19;;;13.09;63.88
7524;BME280;3803;51.666;7.630;2023-05-02T00:53:20;101213.41;;;13.03;63.94
7524;BME280;3803;51.666;7.630;2023-05-02T00:53:41;101215.19;;;13.02;63.91
7524;BME280;3803;51.666;7.630;2023-05-02T00:54:02;101212.56;;;13.02;63.77
7524;BME280;3803;51.666;7.630;2023-05-02T00:54:23;101202.75;;;12.95;64.10
7524;BME280;3803;51.666;7.630;2023-05-02T00:54:44;101210.56;;;12.94;64.20
7524;BME280;3803;51.666;7.630;2023-05-02T00:55:05;101217.59;;;12.95;64.00
7524;BME280;3803;51.666;7.630;2023-05-02T00:55:26;101216.59;;;12.91;64.13
7524;BME280;3803;51.666;7.630;2023-05-02T00:55:47;101210.38;;;12.86;64.17
7524;BME280;3803;51.666;7.630;2023-05-02T00:56:08;101212.09;;;12.85;64.23
7524;BME280;3803;51.666;7.630;2023-05-02T00:56:29;101213.03;;;12.87;64.26
7524;BME280;3803;51.666;7.630;2023-05-02T00:56:50;101209.22;;;12.76;64.50
7524;BME280;3803;51.666;7.630;2023-05-02T00:57:11;101213.59;;;12.75;64.69
7524;BME280;3803;51.666;7.630;2023-05-02T00:57:32;101214.41;;;12.73;64.64
7524;BME280;3803;51.666;7.630;2023-05-02T00:57:53;101200.28;;;12.68;64.72
7524;BME280;3803;51.666;7.630;2023-05-02T00:58:15;101208.88;;;12.62;64.94
7524;BME280;3803;51.666;7.630;2023-05-02T00:58:39;101219.53;;;12.68;64.94
7524;BME280;3803;51.666;7.630;2023-05-02T00:59:00;101214.16;;;12.64;65.15
7524;BME280;3803;51.666;7.630;2023-05-02T00:59:21;101211.38;;;12.57;65.09
7524;BME280;3803;51.666;7.630;2023-05-02T00:59:42;101216.91;;;12.70;64.92
7524;BME280;3803;51.666;7.630;2023-05-02T01:00:03;101200.25;;;12.66;64.75
7524;BME280;3803;51.666;7.630;2023-05-02T01:00:30;101206.53;;;12.73;64.91
7524;BME280;3803;51.666;7.630;2023-05-02T01:01:15;101211.97;;;12.81;64.47
7524;BME280;3803;51.666;7.630;2023-05-02T01:02:04;101219.88;;;12.82;64.38
7524;BME280;3803;51.666;7.630;2023-05-02T01:02:52;101202.22;;;12.75;64.46
7524;BME280;3803;51.666;7.630;2023-05-02T01:03:22;101210.00;;;12.72;64.51
7524;BME280;3803;51.666;7.630;2023-05-02T01:04:12;101210.09;;;12.75;64.42
7524;BME280;3803;51.666;7.630;2023-05-02T01:05:20;101216.63;;;12.57;64.90
7524;BME280;3803;51.666;7.630;2023-05-02T01:05:48;101207.31;;;12.37;65.29
7524;BME280;3803;51.666;7.630;2023-05-02T01:08:19;101215.66;;;12.23;66.14
7524;BME280;3803;51.666;7.630;2023-05-02T01:08:54;101221.00;;;12.26;66.39
7524;BME280;3803;51.666;7.630;2023-05-02T01:09:50;101228.72;;;12.22;66.18
7524;BME280;3803;51.666;7.630;2023-05-02T01:11:03;101210.03;;;12.09;66.61
7524;BME280;3803;51.666;7.630;2023-05-02T01:11:46;101217.16;;;12.13;66.67
7524;BME280;3803;51.666;7.630;2023-05-02T01:12:17;101213.63;;;12.13;66.43
7524;BME280;3803;51.666;7.630;2023-05-02T01:13:27;101216.13;;;12.08;66.61
7524;BME280;3803;51.666;7.630;2023-05-02T01:13:50;101218.78;;;12.10;66.53
7524;BME280;3803;51.666;7.630;2023-05-02T01:14:13;101201.03;;;11.99;66.55
7524;BME280;3803;51.666;7.630;2023-05-02T01:14:41;101208.06;;;12.00;66.85
7524;BME280;3803;51.666;7.630;2023-05-02T01:15:05;101218.59;;;12.03;66.91
7524;BME280;3803;51.666;7.630;2023-05-02T01:15:27;101211.59;;;12.02;66.84
7524;BME280;3803;51.666;7.630;2023-05-02T01:15:50;101214.09;;;11.99;66.90
7524;BME280;3803;51.666;7.630;2023-05-02T01:16:13;101216.91;;;12.05;66.85
7524;BME280;3803;51.666;7.630;2023-05-02T01:16:37;101212.41;;;12.00;67.04
7524;BME280;3803;51.666;7.630;2023-05-02T01:17:05;101207.25;;;12.03;66.97
7524;BME280;3803;51.666;7.630;2023-05-02T01:17:29;101213.31;;;12.02;66.91
7524;BME280;3803;51.666;7.630;2023-05-02T01:17:53;101210.69;;;12.02;66.87
7524;BME280;3803;51.666;7.630;2023-05-02T01:18:17;101210.81;;;12.05;67.00
7524;BME280;3803;51.666;7.630;2023-05-02T01:18:41;101216.00;;;12.03;66.87
7524;BME280;3803;51.666;7.630;2023-05-02T01:19:05;101224.81;;;12.07;66.80
7524;BME280;3803;51.666;7.630;2023-05-02T01:19:35;101215.91;;;12.00;67.18
7524;BME280;3803;51.666;7.630;2023-05-02T01:20:01;101215.06;;;12.01;67.14
7524;BME280;3803;51.666;7.630;2023-05-02T01:20:25;101222.16;;;12.05;66.95
7524;BME280;3803;51.666;7.630;2023-05-02T01:20:52;101234.50;;;12.10;66.88
7524;BME280;3803;51.666;7.630;2023-05-02T01:21:15;101213.38;;;12.03;66.89
7524;BME280;3803;51.666;7.630;2023-05-02T01:21:36;101221.31;;;12.06;66.86
7524;BME280;3803;51.666;7.630;2023-05-02T01:22:01;101216.00;;;12.03;66.69
7524;BME280;3803;51.666;7.630;2023-05-02T01:22:24;101216.91;;;12.05;66.68
7524;BME280;3803;51.666;7.630;2023-05-02T01:22:47;101218.41;;;11.97;66.46
7524;BME280;3803;51.666;7.630;2023-05-02T01:23:15;101231.63;;;12.02;66.69
7524;BME280;3803;51.666;7.630;2023-05-02T01:23:58;101228.09;;;12.00;66.73
7524;BME280;3803;51.666;7.630;2023-05-02T01:25:29;101219.94;;;11.89;67.08
7524;BME280;3803;51.666;7.630;2023-05-02T01:26:55;101235.84;;;11.97;67.43
7524;BME280;3803;51.666;7.630;2023-05-02T01:27:29;101220.00;;;11.92;67.25
7524;BME280;3803;51.666;7.630;2023-05-02T01:29:10;101227.50;;;12.09;66.75
7524;BME280;3803;51.666;7.630;2023-05-02T01:29:34;101225.78;;;12.11;66.55
7524;BME280;3803;51.666;7.630;2023-05-02T01:29:57;101216.91;;;12.05;66.83
7524;BME280;3803;51.666;7.630;2023-05-02T01:30:21;101225.78;;;12.11;66.89
7524;BME280;3803;51.666;7.630;2023-05-02T01:30:45;101221.34;;;12.08;66.92
7524;BME280;3803;51.666;7.630;2023-05-02T01:31:06;101213.38;;;12.03;66.64
7524;BME280;3803;51.666;7.630;2023-05-02T01:31:30;101230.91;;;12.07;66.68
7524;BME280;3803;51.666;7.630;2023-05-02T01:31:53;101235.22;;;12.05;66.58
7524;BME280;3803;51.666;7.630;2023-05-02T01:32:16;101217.63;;;12.00;66.62
7524;BME280;3803;51.666;7.630;2023-05-02T01:32:40;101227.19;;;11.99;66.70
7524;BME280;3803;51.666;7.630;2023-05-02T01:33:04;101233.47;;;12.04;66.78
7524;BME280;3803;51.666;7.630;2023-05-02T01:33:26;101230.84;;;12.04;66.97
7524;BME280;3803;51.666;7.630;2023-05-02T01:33:48;101232.59;;;12.04;66.44
7524;BME280;3803;51.666;7.630;2023-05-02T01:34:11;101239.53;;;12.03;66.82
7524;BME280;3803;51.666;7.630;2023-05-02T01:34:33;101235.00;;;11.98;66.66
7524;BME280;3803;51.666;7.630;2023-05-02T01:34:56;101226.91;;;11.90;66.87
7524;BME280;3803;51.666;7.630;2023-05-02T01:35:19;101237.50;;;11.93;66.87
7524;BME280;3803;51.666;7.630;2023-05-02T01:35:42;101244.50;;;11.94;66.97
7524;BME280;3803;51.666;7.630;2023-05-02T01:36:04;101236.41;;;11.86;66.79
7524;BME280;3803;51.666;7.630;2023-05-02T01:36:28;101254.84;;;11.91;66.97
7524;BME280;3803;51.666;7.630;2023-05-02T01:36:51;101243.41;;;11.87;66.70
7524;BME280;3803;51.666;7.630;2023-05-02T01:37:14;101249.47;;;11.85;66.84
7524;BME280;3803;51.666;7.630;2023-05-02T01:37:38;101241.44;;;11.80;67.11
7524;BME280;3803;51.666;7.630;2023-05-02T01:38:01;101245.81;;;11.79;67.17
7524;BME280;3803;51.666;7.630;2023-05-02T01:38:23;101238.56;;;11.71;67.03
7524;BME280;3803;51.666;7.630;2023-05-02T01:38:44;101232.41;;;11.69;67.23
7524;BME280;3803;51.666;7.630;2023-05-02T01:39:06;101249.97;;;11.73;67.32
7524;BME280;3803;51.666;7.630;2023-05-02T01:39:30;101241.94;;;11.68;67.08
7524;BME280;3803;51.666;7.630;2023-05-02T01:39:53;101250.84;;;11.73;67.05
7524;BME280;3803;51.666;7.630;2023-05-02T01:40:24;101248.03;;;11.67;67.33
7524;BME280;3803;51.666;7.630;2023-05-02T01:40:46;101243.75;;;11.69;67.56
7524;BME280;3803;51.666;7.630;2023-05-02T01:41:11;101255.03;;;11.68;67.45
7524;BME280;3803;51.666;7.630;2023-05-02T01:41:33;101247.91;;;11.64;67.51
7524;BME280;3803;51.666;7.630;2023-05-02T01:41:56;101245.09;;;11.58;67.37
7524;BME280;3803;51.666;7.630;2023-05-02T01:42:19;101239.78;;;11.55;67.38
7524;BME280;3803;51.666;7.630;2023-05-02T01:42:40;101251.09;;;11.55;67.66
7524;BME280;3803;51.666;7.630;2023-05-02T01:43:04;101244.03;;;11.51;67.65
7524;BME280;3803;51.666;7.630;2023-05-02T01:43:26;101247.41;;;11.48;67.54
7524;BME280;3803;51.666;7.630;2023-05-02T01:43:47;101237.81;;;11.47;67.52
7524;BME280;3803;51.666;7.630;2023-05-02T01:44:09;101246.53;;;11.48;68.20
7524;BME280;3803;51.666;7.630;2023-05-02T01:44:34;101246.28;;;11.40;68.16
7524;BME280;3803;51.666;7.630;2023-05-02T01:44:57;101242.78;;;11.40;67.83
7524;BME280;3803;51.666;7.630;2023-05-02T01:45:20;101248.06;;;11.41;67.97
7524;BME280;3803;51.666;7.630;2023-05-02T01:45:43;101250.69;;;11.41;67.94
7524;BME280;3803;51.666;7.630;2023-05-02T01:46:07;101246.22;;;11.37;68.03
7524;BME280;3803;51.666;7.630;2023-05-02T01:46:35;101240.06;;;11.36;68.19
7524;BME280;3803;51.666;7.630;2023-05-02T01:46:59;101253.28;;;11.41;68.09
7524;BME280;3803;51.666;7.630;2023-05-02T01:47:21;101251.59;;;11.43;67.92
7524;BME280;3803;51.666;7.630;2023-05-02T01:47:44;101251.59;;;11.43;67.96
7524;BME280;3803;51.666;7.630;2023-05-02T01:48:06;101254.19;;;11.42;67.97
7524;BME280;3803;51.666;7.630;2023-05-02T01:48:28;101250.75;;;11.43;67.80
7524;BME280;3803;51.666;7.630;2023-05-02T01:48:51;101241.69;;;11.33;68.05
7524;BME280;3803;51.666;7.630;2023-05-02T01:49:13;101249.63;;;11.36;67.92
7524;BME280;3803;51.666;7.630;2023-05-02T01:49:35;101249.53;;;11.33;68.07
7524;BME280;3803;51.666;7.630;2023-05-02T01:49:57;101253.94;;;11.34;68.53
7524;BME280;3803;51.666;7.630;2023-05-02T01:50:21;101262.81;;;11.39;68.52
7524;BME280;3803;51.666;7.630;2023-05-02T01:50:43;101262.75;;;11.37;68.12
7524;BME280;3803;51.666;7.630;2023-05-02T01:51:06;101267.97;;;11.37;68.28
7524;BME280;3803;51.666;7.630;2023-05-02T01:51:32;101264.59;;;11.40;68.58
7524;BME280;3803;51.666;7.630;2023-05-02T01:51:54;101253.09;;;11.35;68.49
7524;BME280;3803;51.666;7.630;2023-05-02T01:52:17;101254.81;;;11.34;68.67
7524;BME280;3803;51.666;7.630;2023-05-02T01:52:40;101259.22;;;11.35;68.41
7524;BME280;3803;51.666;7.630;2023-05-02T01:53:02;101261.06;;;11.40;69.01
7524;BME280;3803;51.666;7.630;2023-05-02T01:53:27;101259.31;;;11.38;68.52
7524;BME280;3803;51.666;7.630;2023-05-02T01:53:51;101269.06;;;11.44;68.78
7524;BME280;3803;51.666;7.630;2023-05-02T01:54:14;101257.53;;;11.37;68.69
7524;BME280;3803;51.666;7.630;2023-05-02T01:54:35;101260.28;;;11.42;68.73
7524;BME280;3803;51.666;7.630;2023-05-02T01:54:58;101248.75;;;11.35;68.78
7524;BME280;3803;51.666;7.630;2023-05-02T01:55:20;101274.34;;;11.46;68.92
7524;BME280;3803;51.666;7.630;2023-05-02T01:55:43;101270.03;;;11.48;68.78
7524;BME280;3803;51.666;7.630;2023-05-02T01:56:07;101259.41;;;11.42;68.62
7524;BME280;3803;51.666;7.630;2023-05-02T01:56:28;101265.72;;;11.48;68.59
7524;BME280;3803;51.666;7.630;2023-05-02T01:56:51;101256.84;;;11.43;68.70
7524;BME280;3803;51.666;7.630;2023-05-02T01:57:13;101264.94;;;11.51;68.87
7524;BME280;3803;51.666;7.630;2023-05-02T01:57:37;101270.31;;;11.56;68.64
7524;BME280;3803;51.666;7.630;2023-05-02T01:57:59;101271.22;;;11.58;68.33
7524;BME280;3803;51.666;7.630;2023-05-02T01:58:22;101271.28;;;11.59;68.22
7524;BME280;3803;51.666;7.630;2023-05-02T01:58:44;101270.31;;;11.56;68.51
7524;BME280;3803;51.666;7.630;2023-05-02T01:59:07;101265.16;;;11.59;68.50
7524;BME280;3803;51.666;7.630;2023-05-02T01:59:29;101275.75;;;11.63;68.55
7524;BME280;3803;51.666;7.630;2023-05-02T02:00:18;101282.91;;;11.68;68.28
7524;BME280;3803;51.666;7.630;2023-05-02T02:00:46;101283.78;;;11.68;68.33
7524;BME280;3803;51.666;7.630;2023-05-02T02:01:09;101279.47;;;11.69;68.21
7524;BME280;3803;51.666;7.630;2023-05-02T02:01:30;101282.13;;;11.70;68.37
7524;BME280;3803;51.666;7.630;2023-05-02T02:01:51;101272.50;;;11.69;68.45
7524;BME280;3803;51.666;7.630;2023-05-02T02:02:13;101274.31;;;11.72;68.49
7524;BME280;3803;51.666;7.630;2023-05-02T02:02:34;101280.59;;;11.77;68.45
7524;BME280;3803;51.666;7.630;2023-05-02T02:02:56;101273.63;;;11.77;68.34
7524;BME280;3803;51.666;7.630;2023-05-02T02:03:17;101278.75;;;11.74;68.15
7524;BME280;3803;51.666;7.630;2023-05-02T02:03:39;101285.88;;;11.78;67.98
7524;BME280;3803;51.666;7.630;2023-05-02T02:04:01;101273.63;;;11.77;68.26
7524;BME280;3803;51.666;7.630;2023-05-02T02:04:25;101276.25;;;11.77;68.24
7524;BME280;3803;51.666;7.630;2023-05-02T02:04:47;101279.94;;;11.84;68.05
7524;BME280;3803;51.666;7.630;2023-05-02T02:05:09;101285.16;;;11.84;68.03
7524;BME280;3803;51.666;7.630;2023-05-02T02:05:33;101273.63;;;11.77;68.05
7524;BME280;3803;51.666;7.630;2023-05-02T02:05:55;101279.00;;;11.82;67.91
7524;BME280;3803;51.666;7.630;2023-05-02T02:06:18;101288.69;;;11.85;67.90
7524;BME280;3803;51.666;7.630;2023-05-02T02:06:41;101284.38;;;11.87;67.72
7524;BME280;3803;51.666;7.630;2023-05-02T02:07:06;101296.66;;;11.89;67.95
7524;BME280;3803;51.666;7.630;2023-05-02T02:07:28;101282.69;;;11.89;67.76
7524;BME280;3803;51.666;7.630;2023-05-02T02:07:48;101279.03;;;11.84;67.76
7524;BME280;3803;51.666;7.630;2023-05-02T02:08:21;101296.81;;;11.94;67.94
7524;BME280;3803;51.666;7.630;2023-05-02T02:08:42;101288.75;;;11.88;67.98
7524;BME280;3803;51.666;7.630;2023-05-02T02:09:02;101288.75;;;11.88;67.96
7524;BME280;3803;51.666;7.630;2023-05-02T02:09:23;101295.81;;;11.90;68.20
7524;BME280;3803;51.666;7.630;2023-05-02T02:09:44;101286.00;;;11.83;68.05
7524;BME280;3803;51.666;7.630;2023-05-02T02:10:05;101285.25;;;11.87;68.14